F44 weather

Athens Municipal Airport
Athens, Texas, United States

Public forecast

Using degrees Fahrenheit for public forecast. Weather courtesy of forecast.io.

METAR (pilot weather report)

Retrieved UTC (0 seconds ago):

TAF (pilot weather forecast)

Closest forecast is Tyler Pounds Regional Airport, 24.5 nm (45.3 km) ENE. Retrieved 2019/06/19 18:39 UTC (2 hours ago):

TAF KTYR 191737Z 1918/2018 21012KT P6SM SCT030 TEMPO 1918/1920 BKN020 FM192100 20012KT P6SM VCTS BKN040CB TEMPO 2001/2005 VRB25G50KT 1SM +TSRA BR OVC020CB FM200600 21008KT P6SM SCT080 BKN150 FM201000 22010KT P6SM BKN015 FM201400 23012G20KT P6SM SCT030